createdAt,value
2023-03-13T00:00:57.388Z,44.76
2023-03-13T00:03:42.955Z,44.66
2023-03-13T00:06:32.399Z,44.75
2023-03-13T00:09:18.151Z,44.64
2023-03-13T00:12:03.703Z,44.68
2023-03-13T00:14:49.290Z,44.77
2023-03-13T00:17:34.473Z,44.78
2023-03-13T00:20:19.633Z,44.85
2023-03-13T00:23:04.892Z,44.75
2023-03-13T00:25:58.718Z,44.78
2023-03-13T00:28:46.033Z,44.76
2023-03-13T00:31:32.299Z,44.73
2023-03-13T00:34:17.461Z,44.82
2023-03-13T00:37:02.607Z,44.91
2023-03-13T00:39:47.778Z,44.90
2023-03-13T00:42:33.095Z,44.81
2023-03-13T00:45:18.541Z,44.75
2023-03-13T00:48:05.418Z,44.85
2023-03-13T00:50:51.154Z,45.14
2023-03-13T00:53:36.671Z,45.10
2023-03-13T00:56:22.598Z,45.52
2023-03-13T00:59:08.195Z,45.62
2023-03-13T01:01:53.437Z,45.78
2023-03-13T01:04:39.616Z,45.78
2023-03-13T01:07:24.809Z,45.88
2023-03-13T01:10:10.535Z,45.98
2023-03-13T01:12:55.808Z,46.05
2023-03-13T01:15:42.234Z,46.11
2023-03-13T01:18:28.131Z,46.04
2023-03-13T01:21:14.749Z,46.19
2023-03-13T01:24:00.619Z,46.23
2023-03-13T01:26:45.999Z,46.18
2023-03-13T01:29:31.588Z,46.17
2023-03-13T01:32:17.383Z,46.18
2023-03-13T01:35:02.707Z,46.11
2023-03-13T01:37:47.853Z,46.32
2023-03-13T01:40:43.484Z,46.27
2023-03-13T01:43:31.501Z,46.35
2023-03-13T01:46:21.496Z,46.34
2023-03-13T01:49:34.642Z,46.49
2023-03-13T01:52:31.257Z,46.49
2023-03-13T01:55:28.302Z,46.44
2023-03-13T01:58:14.564Z,46.47
2023-03-13T02:01:00.725Z,46.52
2023-03-13T02:03:48.456Z,46.46
2023-03-13T02:06:37.551Z,46.50
2023-03-13T02:09:26.228Z,46.58
2023-03-13T02:12:14.921Z,46.50
2023-03-13T02:15:04.289Z,46.37
2023-03-13T02:17:50.592Z,46.48
2023-03-13T02:20:39.764Z,46.38
2023-03-13T02:23:45.228Z,46.18
2023-03-13T02:26:31.098Z,46.13
2023-03-13T02:29:18.583Z,46.10
2023-03-13T02:32:04.718Z,46.10
2023-03-13T02:34:54.593Z,46.27
2023-03-13T02:37:42.760Z,46.09
2023-03-13T02:40:39.979Z,46.18
2023-03-13T02:43:34.501Z,46.05
2023-03-13T02:46:21.433Z,46.09
2023-03-13T02:49:28.758Z,46.30
2023-03-13T02:52:25.041Z,46.19
2023-03-13T02:55:29.701Z,46.18
2023-03-13T02:58:15.227Z,46.21
2023-03-13T03:01:07.729Z,46.29
2023-03-13T03:03:56.192Z,46.29
2023-03-13T03:06:43.096Z,46.30
2023-03-13T03:09:28.320Z,46.33
2023-03-13T03:12:18.032Z,46.25
2023-03-13T03:15:07.023Z,46.29
2023-03-13T03:17:54.819Z,46.44
2023-03-13T03:20:40.485Z,46.41
2023-03-13T03:23:25.742Z,46.16
2023-03-13T03:26:11.055Z,46.69
2023-03-13T03:28:57.416Z,46.39
2023-03-13T03:31:43.214Z,46.33
2023-03-13T03:34:28.348Z,46.30
2023-03-13T03:37:14.678Z,46.17
2023-03-13T03:39:59.970Z,46.12
2023-03-13T03:42:48.729Z,46.02
2023-03-13T03:45:34.224Z,45.93
2023-03-13T03:48:20.493Z,45.92
2023-03-13T03:51:06.009Z,45.94
2023-03-13T03:53:54.741Z,45.99
2023-03-13T03:56:40.702Z,45.96
2023-03-13T03:59:26.111Z,45.89
2023-03-13T04:02:16.185Z,45.79
2023-03-13T04:05:04.348Z,45.75
2023-03-13T04:07:54.538Z,45.84
2023-03-13T04:10:39.723Z,45.73
2023-03-13T04:13:26.060Z,45.88
2023-03-13T04:16:12.317Z,45.81
2023-03-13T04:18:59.285Z,46.07
2023-03-13T04:21:45.602Z,46.06
2023-03-13T04:24:35.106Z,46.03
2023-03-13T04:27:20.773Z,46.11
2023-03-13T04:30:08.470Z,46.14
2023-03-13T04:33:05.081Z,46.08
2023-03-13T04:36:12.656Z,46.02
2023-03-13T04:39:32.018Z,46.02
2023-03-13T04:42:44.468Z,46.01
2023-03-13T04:45:54.919Z,45.99
2023-03-13T04:48:58.232Z,46.04
2023-03-13T04:51:45.366Z,46.03
2023-03-13T04:55:12.276Z,44.13
2023-03-13T04:58:33.201Z,43.17
2023-03-13T05:01:34.213Z,41.72
2023-03-13T05:04:38.367Z,41.30
2023-03-13T05:07:47.956Z,41.49
2023-03-13T05:11:03.337Z,42.71
2023-03-13T05:14:09.347Z,43.32
2023-03-13T05:16:55.850Z,43.67
2023-03-13T05:20:11.280Z,44.24
2023-03-13T05:23:23.342Z,44.27
2023-03-13T05:26:40.687Z,44.73
2023-03-13T05:29:41.713Z,45.00
2023-03-13T05:32:47.745Z,45.34
2023-03-13T05:36:00.942Z,45.24
2023-03-13T05:39:06.509Z,45.44
2023-03-13T05:42:12.946Z,44.91
2023-03-13T05:45:09.388Z,45.36
2023-03-13T05:48:30.329Z,45.26
2023-03-13T05:51:36.415Z,45.52
2023-03-13T05:54:50.802Z,45.66
2023-03-13T05:58:14.734Z,45.73
2023-03-13T06:01:20.054Z,45.97
2023-03-13T06:04:13.939Z,45.68
2023-03-13T06:06:59.948Z,45.40
2023-03-13T06:09:46.332Z,45.21
2023-03-13T06:12:33.269Z,45.16
2023-03-13T06:15:19.092Z,45.66
2023-03-13T06:18:13.511Z,45.42
2023-03-13T06:21:00.730Z,45.29
2023-03-13T06:23:46.185Z,45.08
2023-03-13T06:26:31.284Z,44.93
2023-03-13T06:29:17.286Z,45.06
2023-03-13T06:32:03.254Z,45.00
2023-03-13T06:34:48.642Z,44.93
2023-03-13T06:37:34.310Z,44.85
2023-03-13T06:40:19.935Z,45.03
2023-03-13T06:43:05.197Z,44.95
2023-03-13T06:45:50.711Z,45.03
2023-03-13T06:48:36.246Z,44.90
2023-03-13T06:51:22.653Z,44.99
2023-03-13T06:54:08.275Z,45.22
2023-03-13T06:56:53.700Z,45.33
2023-03-13T06:59:39.233Z,45.41
2023-03-13T07:02:24.657Z,45.20
2023-03-13T07:05:09.995Z,45.25
2023-03-13T07:07:55.587Z,45.20
2023-03-13T07:10:43.053Z,45.31
2023-03-13T07:13:29.163Z,45.22
2023-03-13T07:16:14.613Z,45.40
2023-03-13T07:18:59.855Z,45.36
2023-03-13T07:21:44.922Z,45.43
2023-03-13T07:24:30.365Z,45.47
2023-03-13T07:27:17.488Z,45.44
2023-03-13T07:30:03.018Z,45.49
2023-03-13T07:32:48.326Z,45.57
2023-03-13T07:35:33.430Z,45.54
2023-03-13T07:38:20.195Z,45.71
2023-03-13T07:41:06.296Z,45.54
2023-03-13T07:43:51.621Z,45.48
2023-03-13T07:46:36.923Z,45.53
2023-03-13T07:49:22.105Z,45.77
2023-03-13T07:52:07.340Z,45.55
2023-03-13T07:54:52.526Z,45.50
2023-03-13T07:57:38.100Z,45.54
2023-03-13T08:00:23.605Z,45.46
2023-03-13T08:03:09.929Z,45.64
2023-03-13T08:06:02.693Z,45.73
2023-03-13T08:08:48.274Z,45.56
2023-03-13T08:11:34.282Z,45.58
2023-03-13T08:14:19.881Z,45.71
2023-03-13T08:17:05.440Z,45.64
2023-03-13T08:19:50.600Z,45.73
2023-03-13T08:22:38.157Z,45.80
2023-03-13T08:25:23.412Z,45.81
2023-03-13T08:28:08.890Z,45.79
2023-03-13T08:30:54.470Z,45.35
2023-03-13T08:33:40.761Z,45.72
2023-03-13T08:36:28.979Z,45.75
2023-03-13T08:39:17.309Z,45.75
2023-03-13T08:42:02.688Z,45.92
2023-03-13T08:44:48.004Z,45.88
2023-03-13T08:47:33.487Z,45.95
2023-03-13T08:50:18.743Z,45.93
2023-03-13T08:53:03.958Z,46.07
2023-03-13T08:55:53.436Z,46.04
2023-03-13T08:58:38.920Z,45.92
2023-03-13T09:01:26.580Z,45.94
2023-03-13T09:04:11.919Z,45.68
2023-03-13T09:06:57.145Z,45.95
2023-03-13T09:09:42.641Z,45.89
2023-03-13T09:12:31.252Z,45.75
2023-03-13T09:15:16.853Z,45.86
2023-03-13T09:18:02.328Z,45.87
2023-03-13T09:20:49.007Z,45.89
2023-03-13T09:23:34.430Z,45.87
2023-03-13T09:26:22.965Z,45.95
2023-03-13T09:29:09.817Z,45.82
2023-03-13T09:31:55.206Z,45.88
2023-03-13T09:34:40.501Z,45.97
2023-03-13T09:37:26.402Z,46.06
2023-03-13T09:40:16.149Z,45.97
2023-03-13T09:43:02.141Z,46.02
2023-03-13T09:45:51.243Z,45.98
2023-03-13T09:48:42.897Z,45.97
2023-03-13T09:51:38.538Z,46.05
2023-03-13T09:54:38.557Z,46.21
2023-03-13T09:58:00.366Z,46.11
2023-03-13T10:00:54.433Z,46.15
2023-03-13T10:03:45.114Z,46.22
2023-03-13T10:06:38.316Z,46.51
2023-03-13T10:09:30.958Z,46.14
2023-03-13T10:12:19.739Z,46.09
2023-03-13T10:15:37.207Z,46.11
2023-03-13T10:18:24.654Z,46.17
2023-03-13T10:21:24.897Z,46.10
2023-03-13T10:24:27.352Z,46.06
2023-03-13T10:27:15.032Z,46.00
2023-03-13T10:30:00.243Z,46.12
2023-03-13T10:32:45.701Z,45.92
2023-03-13T10:35:34.248Z,46.12
2023-03-13T10:38:23.475Z,46.02
2023-03-13T10:41:23.436Z,45.96
2023-03-13T10:44:21.551Z,46.00
2023-03-13T10:47:14.966Z,46.34
2023-03-13T10:50:02.029Z,46.51
2023-03-13T10:52:49.143Z,46.25
2023-03-13T10:55:34.581Z,46.32
2023-03-13T10:58:47.474Z,46.32
2023-03-13T11:01:42.708Z,46.29
2023-03-13T11:04:31.329Z,46.31
2023-03-13T11:07:22.301Z,46.29
2023-03-13T11:10:13.899Z,46.20
2023-03-13T11:12:59.417Z,46.17
2023-03-13T11:15:57.122Z,46.13
2023-03-13T11:19:15.376Z,46.03
2023-03-13T11:22:15.005Z,46.02
2023-03-13T11:25:23.162Z,45.91
2023-03-13T11:28:24.446Z,45.94
2023-03-13T11:31:18.413Z,45.96
2023-03-13T11:34:21.201Z,46.03
2023-03-13T11:37:13.268Z,45.98
2023-03-13T11:40:22.639Z,46.15
2023-03-13T11:43:24.486Z,46.09
2023-03-13T11:46:33.518Z,46.25
2023-03-13T11:49:32.002Z,45.99
2023-03-13T11:52:48.532Z,45.96
2023-03-13T11:56:12.687Z,45.95
2023-03-13T11:59:16.598Z,45.97
2023-03-13T12:02:27.503Z,45.87
2023-03-13T12:05:18.176Z,45.83
2023-03-13T12:08:10.455Z,45.91
2023-03-13T12:11:09.244Z,45.86
2023-03-13T12:14:02.817Z,45.90
2023-03-13T12:16:59.764Z,45.82
2023-03-13T12:19:52.629Z,45.93
2023-03-13T12:23:03.143Z,45.92
2023-03-13T12:26:04.972Z,45.91
2023-03-13T12:29:16.235Z,45.86
2023-03-13T12:32:16.905Z,45.90
2023-03-13T12:35:20.961Z,45.90
2023-03-13T12:38:35.060Z,45.93
2023-03-13T12:41:28.419Z,45.94
2023-03-13T12:44:20.628Z,45.95
2023-03-13T12:47:43.250Z,46.04
2023-03-13T12:50:38.664Z,46.11
2023-03-13T12:53:45.470Z,46.12
2023-03-13T12:56:46.152Z,46.17
2023-03-13T12:59:44.185Z,46.23
2023-03-13T13:02:31.007Z,46.16
2023-03-13T13:05:21.995Z,46.22
2023-03-13T13:08:25.404Z,46.24
2023-03-13T13:11:37.213Z,46.31
2023-03-13T13:14:48.218Z,46.36
2023-03-13T13:17:39.693Z,46.38
2023-03-13T13:20:40.180Z,46.40
2023-03-13T13:23:34.264Z,46.26
2023-03-13T13:26:28.839Z,46.26
2023-03-13T13:29:14.215Z,46.30
2023-03-13T13:32:01.761Z,46.36
2023-03-13T13:34:53.286Z,46.33
2023-03-13T13:37:40.231Z,46.47
2023-03-13T13:40:30.190Z,46.43
2023-03-13T13:43:24.780Z,46.60
2023-03-13T13:46:33.134Z,46.60
2023-03-13T13:49:23.493Z,46.84
2023-03-13T13:52:09.403Z,46.80
2023-03-13T13:54:57.431Z,46.88
2023-03-13T13:57:44.156Z,46.84
2023-03-13T14:00:53.984Z,46.93
2023-03-13T14:03:43.438Z,47.36
2023-03-13T14:06:35.194Z,48.24
2023-03-13T14:09:54.811Z,47.47
2023-03-13T14:12:40.610Z,47.05
2023-03-13T14:15:34.620Z,46.79
2023-03-13T14:18:28.500Z,47.01
2023-03-13T14:21:14.352Z,46.54
2023-03-13T14:24:00.398Z,46.72
2023-03-13T14:26:45.909Z,46.67
2023-03-13T14:29:31.210Z,46.65
2023-03-13T14:32:17.840Z,47.24
2023-03-13T14:35:06.263Z,47.72
2023-03-13T14:37:54.379Z,47.81
2023-03-13T14:40:40.110Z,48.24
2023-03-13T14:43:28.345Z,48.25
2023-03-13T14:46:25.669Z,48.23
2023-03-13T14:49:19.266Z,48.09
2023-03-13T14:52:21.522Z,47.94
2023-03-13T14:55:27.857Z,48.01
2023-03-13T14:58:30.470Z,48.14
2023-03-13T15:01:26.856Z,48.08
2023-03-13T15:04:12.780Z,47.96
2023-03-13T15:07:03.234Z,48.34
2023-03-13T15:09:50.174Z,48.28
2023-03-13T15:12:43.688Z,48.51
2023-03-13T15:15:29.240Z,48.18
2023-03-13T15:18:29.443Z,48.42
2023-03-13T15:21:14.629Z,48.06
2023-03-13T15:24:02.589Z,48.24
2023-03-13T15:26:49.255Z,48.01
2023-03-13T15:29:34.916Z,47.93
2023-03-13T15:32:28.191Z,48.13
2023-03-13T15:35:22.816Z,48.35
2023-03-13T15:38:17.496Z,47.94
2023-03-13T15:41:03.137Z,47.88
2023-03-13T15:43:52.570Z,47.63
2023-03-13T15:46:37.896Z,47.44
2023-03-13T15:49:23.446Z,48.02
2023-03-13T15:52:20.487Z,47.91
2023-03-13T15:55:10.331Z,47.78
2023-03-13T15:57:56.016Z,48.28
2023-03-13T16:00:49.101Z,48.03
2023-03-13T16:03:35.359Z,47.95
2023-03-13T16:06:28.286Z,47.87
2023-03-13T16:09:14.117Z,48.21
2023-03-13T16:11:59.471Z,47.86
2023-03-13T16:14:44.543Z,48.22
2023-03-13T16:17:29.736Z,49.04
2023-03-13T16:20:20.949Z,49.44
2023-03-13T16:23:06.426Z,51.07
2023-03-13T16:25:51.836Z,51.50
2023-03-13T16:28:37.127Z,51.84
2023-03-13T16:31:28.216Z,53.56
2023-03-13T16:34:13.403Z,54.12
2023-03-13T16:36:58.656Z,54.14
2023-03-13T16:39:45.318Z,53.66
2023-03-13T16:42:30.700Z,53.26
2023-03-13T16:45:16.225Z,53.44
2023-03-13T16:48:01.987Z,52.69
2023-03-13T16:50:47.488Z,52.98
2023-03-13T16:53:32.979Z,52.56
2023-03-13T16:56:39.552Z,53.53
2023-03-13T16:59:25.645Z,52.82
2023-03-13T17:02:16.887Z,52.61
2023-03-13T17:05:02.824Z,52.96
2023-03-13T17:07:50.330Z,53.10
2023-03-13T17:10:35.974Z,53.15
2023-03-13T17:13:24.053Z,52.85
2023-03-13T17:16:23.592Z,53.10
2023-03-13T17:19:17.403Z,53.17
2023-03-13T17:22:03.991Z,52.35
2023-03-13T17:24:51.597Z,52.80
2023-03-13T17:27:40.330Z,52.79
2023-03-13T17:30:30.181Z,53.76
2023-03-13T17:33:15.620Z,53.16
2023-03-13T17:36:00.970Z,53.00
2023-03-13T17:38:48.218Z,52.95
2023-03-13T17:41:35.170Z,52.48
2023-03-13T17:44:20.701Z,51.95
2023-03-13T17:47:12.789Z,52.05
2023-03-13T17:49:58.409Z,51.86
2023-03-13T17:52:46.028Z,51.90
2023-03-13T17:55:31.728Z,51.79
2023-03-13T17:58:17.443Z,51.53
2023-03-13T18:01:02.752Z,51.63
2023-03-13T18:03:49.354Z,51.67
2023-03-13T18:06:39.453Z,51.42
2023-03-13T18:09:25.293Z,51.41
2023-03-13T18:12:11.739Z,50.78
2023-03-13T18:14:56.881Z,50.81
2023-03-13T18:17:42.368Z,50.79
2023-03-13T18:20:31.537Z,50.81
2023-03-13T18:23:16.794Z,50.58
2023-03-13T18:26:02.397Z,50.38
2023-03-13T18:28:48.200Z,50.56
2023-03-13T18:31:36.104Z,50.27
2023-03-13T18:34:23.167Z,50.26
2023-03-13T18:37:23.497Z,49.91
2023-03-13T18:40:29.447Z,49.77
2023-03-13T18:43:14.708Z,49.85
2023-03-13T18:46:00.335Z,49.95
2023-03-13T18:48:46.145Z,50.25
2023-03-13T18:51:31.424Z,50.58
2023-03-13T18:54:17.423Z,50.60
2023-03-13T18:57:10.040Z,50.70
2023-03-13T18:59:55.366Z,50.62
2023-03-13T19:02:40.650Z,50.38
2023-03-13T19:05:26.065Z,50.72
2023-03-13T19:08:11.614Z,50.62
2023-03-13T19:10:56.995Z,50.45
2023-03-13T19:13:42.229Z,50.18
2023-03-13T19:16:31.571Z,50.14
2023-03-13T19:19:18.832Z,50.30
2023-03-13T19:22:04.233Z,50.06
2023-03-13T19:24:49.889Z,49.84
2023-03-13T19:27:35.789Z,49.92
2023-03-13T19:30:25.613Z,49.61
2023-03-13T19:33:12.230Z,49.41
2023-03-13T19:35:58.051Z,49.44
2023-03-13T19:38:44.747Z,49.41
2023-03-13T19:41:30.366Z,49.23
2023-03-13T19:44:17.358Z,49.25
2023-03-13T19:47:04.235Z,49.37
2023-03-13T19:49:51.199Z,49.25
2023-03-13T19:52:36.739Z,49.06
2023-03-13T19:55:22.275Z,49.24
2023-03-13T19:58:07.731Z,49.32
2023-03-13T20:00:53.020Z,49.19
2023-03-13T20:03:38.624Z,49.17
2023-03-13T20:06:34.778Z,49.29
2023-03-13T20:09:23.318Z,49.04
2023-03-13T20:12:08.742Z,49.15
2023-03-13T20:14:54.113Z,49.08
2023-03-13T20:17:39.712Z,49.15
2023-03-13T20:20:25.007Z,49.09
2023-03-13T20:23:10.413Z,49.20
2023-03-13T20:25:56.022Z,49.20
2023-03-13T20:28:44.326Z,49.10
2023-03-13T20:31:31.625Z,49.22
2023-03-13T20:34:17.139Z,49.30
2023-03-13T20:37:03.897Z,49.29
2023-03-13T20:39:49.458Z,49.34
2023-03-13T20:42:34.813Z,49.41
2023-03-13T20:45:20.173Z,49.61
2023-03-13T20:48:05.931Z,49.66
2023-03-13T20:50:53.270Z,49.68
2023-03-13T20:53:40.405Z,49.65
2023-03-13T20:56:25.870Z,49.61
2023-03-13T20:59:11.063Z,49.63
2023-03-13T21:01:56.592Z,49.69
2023-03-13T21:04:41.794Z,49.66
2023-03-13T21:07:27.256Z,49.46
2023-03-13T21:10:12.785Z,49.75
2023-03-13T21:12:58.077Z,49.53
2023-03-13T21:15:43.755Z,49.56
2023-03-13T21:18:29.262Z,49.50
2023-03-13T21:21:18.689Z,49.72
2023-03-13T21:24:04.473Z,49.57
2023-03-13T21:26:49.949Z,50.02
2023-03-13T21:29:35.288Z,49.60
2023-03-13T21:32:20.928Z,49.56
2023-03-13T21:35:08.068Z,49.35
2023-03-13T21:37:53.387Z,49.41
2023-03-13T21:40:42.971Z,49.49
2023-03-13T21:43:28.373Z,49.39
2023-03-13T21:46:16.139Z,49.30
2023-03-13T21:49:02.252Z,49.31
2023-03-13T21:51:47.650Z,49.23
2023-03-13T21:54:33.057Z,49.24
2023-03-13T21:57:18.267Z,49.26
2023-03-13T22:00:07.972Z,49.14
2023-03-13T22:02:55.385Z,49.24
2023-03-13T22:05:42.609Z,49.24
2023-03-13T22:08:28.131Z,49.20
2023-03-13T22:11:13.509Z,49.16
2023-03-13T22:13:58.970Z,49.17
2023-03-13T22:16:44.221Z,49.20
2023-03-13T22:19:29.754Z,49.29
2023-03-13T22:22:16.062Z,49.25
2023-03-13T22:25:01.301Z,49.12
2023-03-13T22:27:46.899Z,49.13
2023-03-13T22:30:32.369Z,49.20
2023-03-13T22:33:18.754Z,49.13
2023-03-13T22:36:05.099Z,49.21
2023-03-13T22:38:50.784Z,49.14
2023-03-13T22:41:36.320Z,49.02
2023-03-13T22:44:21.764Z,49.18
2023-03-13T22:47:07.000Z,49.00
2023-03-13T22:49:53.488Z,48.98
2023-03-13T22:52:40.803Z,49.22
2023-03-13T22:55:26.481Z,48.95
2023-03-13T22:58:11.651Z,49.09
2023-03-13T23:00:57.085Z,49.07
2023-03-13T23:03:42.840Z,49.07
2023-03-13T23:06:28.220Z,49.15
2023-03-13T23:09:13.902Z,49.12
2023-03-13T23:11:59.507Z,49.22
2023-03-13T23:14:45.003Z,49.21
2023-03-13T23:17:31.928Z,49.07
2023-03-13T23:20:17.720Z,49.10
2023-03-13T23:23:03.654Z,49.06
2023-03-13T23:25:49.850Z,49.15
2023-03-13T23:28:37.076Z,49.07
2023-03-13T23:31:23.593Z,49.20
2023-03-13T23:34:09.095Z,48.99
2023-03-13T23:36:54.484Z,49.18
2023-03-13T23:39:39.754Z,49.15
2023-03-13T23:42:24.956Z,49.16
2023-03-13T23:45:10.411Z,49.15
2023-03-13T23:47:56.634Z,49.09
2023-03-13T23:50:41.840Z,48.92
2023-03-13T23:53:27.054Z,49.05
2023-03-13T23:56:12.910Z,49.31
2023-03-13T23:58:58.431Z,48.99
